cloudbaseCU.php : Version 1.5 - copyright 2013 Silver Acorn Limited
Date/Time : Fri, 16 Apr 2021 02:49:39 (Night)
Time Zone : Europe/London (GMT+1 hours)
INPUT ITEM: RAW DATA -> DERIVED
    Current temp : 3.5 -> 3.5 °C
    Dewpoint : 2.7 -> 2.7 °C
    Rain Fall : 0.0 -> 0.0 mm
    Barometer : 1030.5 -> 1031 hPa
    Humidity : 94 -> 94 %
    Wind Speed : 0 -> 0 mph
    Wind Dir : 360 -> 360 degrees
    Cloud Altitude : 318 -> 320 ft (AGL)
    Latitude : 55 -> N = Northern Hemisphere
    Season : -> Spring
    Moon Age : 4 -> 4 days
    Is daylight : 0 -> Night
    Realtime file Interval : 10 -> 10 Seconds
    Tag file time Interval : 5 -> 5 Minutes
CUMULUS CONDITIONS
    Cumulus conditions not in use
    Zambretti # : 2 -> 2
METAR CONDITONS - Metar Times UNC, Update Station times based on timezone setting
    $pathToMetFile : ./cache/
    Metar - Rawdata : 2021/04/16 01:20 EGAC 160120Z AUTO 21006KT 9999 NCD 05/02 Q1031
    Metar - Trimmed : 160120Z AUTO 21006KT 9999 NCD 05/02 Q1031
    Metar - Decoded : Not Raining; Sunny
    Now : 1618537778 seconds or Station Time of 02:49:39
    Metar report timestamp : 1618536000 seconds
    Age of File : 29.63 minutes
    When to update Metar : seconds (When station time ~ 01:00:00)
        (Metar report timestamp plus 39 mins refresh time)
    Next Download in : -26975629.63 Minutes (if  '-' then refresh page, if still '-' then download overdue!)
    Metar file : New File downloaded
    Note:- Metar updates are usually Hourly unless AUTO when they may update every 30 minutes
OUTPUT DATA

    $showAGLASL : true
Cloud Temp : 2 °C
Background image file name : ./images/cb/cb-bg-00sprn.png
    $useWXrain : true
    $tagint : 5
    Last rain : 6261 minutes ago
    $wxrain : false
"useWXrain" results :-
    No rain in last 5 minutes -> Not raining
SETTINGS
    $realtime : cloudbaseCU.txt
    $metarICAO : EGAC
    $pathToMetFile : ./cache/
    $tz : Europe/London - The setting in this script, may be overidden by the Saratoga SITE setting
    $pathToImages : ./images/cb/
    $pathToMoonImages : ./images/cb/moon/
    $translate : true
    $switchSeasons : true
    $showCldSource : true
    $showCloudTemp : true
    $showCaption : true
    $showMoon : true
    $showScale : true
    $showWinsock : false
    $showWindDir : false
    $showWindSpd : false
    $showTemp : false
    $showHumidity : false
    $showBaro : false
    $alwaysShowCloud : false
    $useCUHeight : false
    $getMetar : true
    $metarRefresh : true
    $useMetarAtNight : true
    $onlyUseMetar : true
    $reportMistAt : 25 ft
    $stationAltitude : 0 ft